Time;durP1;ratioP1;P1;durP2;ratioP2;P2;SDS_P1;SDS_P2;PMS_P1;PMS_P2;Temp;Humidity;BMP_temperature;BMP_pressure;BME280_temperature;BME280_humidity;BME280_pressure;Samples;Min_cycle;Max_cycle;Signal;HPM_P1;HPM_P2
2023/08/30 00:01:38;;;;;;;3.30;2.97;;;13.90;99.90;;;;;;5028475;28;20731;-53
2023/08/30 00:04:05;;;;;;;3.40;3.10;;;13.80;99.90;;;;;;5030635;28;20289;-52
2023/08/30 00:06:31;;;;;;;4.30;3.10;;;13.80;99.90;;;;;;5024349;28;20265;-54
2023/08/30 00:08:58;;;;;;;3.93;3.53;;;13.80;99.90;;;;;;5030506;28;20270;-47
2023/08/30 00:11:25;;;;;;;3.97;3.17;;;13.90;99.90;;;;;;5032885;28;20218;-44
2023/08/30 00:13:53;;;;;;;6.63;3.27;;;13.90;99.90;;;;;;5011055;28;20211;-50
2023/08/30 00:16:21;;;;;;;3.97;3.57;;;14.00;99.90;;;;;;5036158;28;20606;-45
2023/08/30 00:18:48;;;;;;;3.13;2.93;;;13.90;99.90;;;;;;5018802;28;20227;-51
2023/08/30 00:21:16;;;;;;;3.40;3.07;;;13.90;99.90;;;;;;5027594;28;20199;-56
2023/08/30 00:23:43;;;;;;;3.80;3.50;;;13.80;99.90;;;;;;5016413;28;21002;-50
2023/08/30 00:26:10;;;;;;;4.20;3.57;;;13.80;99.90;;;;;;5041437;28;20617;-51
2023/08/30 00:28:36;;;;;;;3.63;3.27;;;13.70;99.90;;;;;;5019707;28;20262;-45
2023/08/30 00:31:03;;;;;;;3.37;3.07;;;13.70;99.90;;;;;;5041514;28;20235;-50
2023/08/30 00:33:31;;;;;;;3.33;3.03;;;13.60;99.90;;;;;;5039722;28;20242;-45
2023/08/30 00:35:59;;;;;;;2.90;2.67;;;13.50;99.90;;;;;;5041887;28;20218;-44
2023/08/30 00:38:28;;;;;;;3.20;3.00;;;13.50;99.90;;;;;;5016728;28;20204;-52
2023/08/30 00:40:55;;;;;;;2.60;2.40;;;13.40;99.90;;;;;;5027903;28;20196;-43
2023/08/30 00:43:21;;;;;;;2.77;2.57;;;13.40;99.90;;;;;;5011106;28;20566;-56
2023/08/30 00:45:49;;;;;;;2.80;2.60;;;13.40;99.90;;;;;;5025653;28;20643;-46
2023/08/30 00:48:18;;;;;;;3.53;2.40;;;13.40;99.90;;;;;;5031227;28;20199;-55
2023/08/30 00:50:46;;;;;;;2.87;2.37;;;13.30;99.90;;;;;;5034909;28;20183;-49
2023/08/30 00:53:14;;;;;;;2.57;1.93;;;13.20;99.90;;;;;;5018653;28;20227;-54
2023/08/30 00:55:42;;;;;;;2.50;2.30;;;13.20;99.90;;;;;;5024986;28;20281;-46
2023/08/30 00:58:11;;;;;;;3.17;2.30;;;13.20;99.90;;;;;;5025117;28;20236;-51
2023/08/30 01:00:39;;;;;;;4.20;2.20;;;13.10;99.90;;;;;;5012531;28;20204;-45
2023/08/30 01:03:07;;;;;;;2.47;2.37;;;13.10;99.90;;;;;;5032049;28;20200;-49
2023/08/30 01:05:34;;;;;;;3.73;2.33;;;13.10;99.90;;;;;;5026467;28;20414;-49
2023/08/30 01:08:02;;;;;;;3.00;2.33;;;13.10;99.90;;;;;;5019008;28;20212;-49
2023/08/30 01:10:42;;;;;;;5.33;2.63;;;13.10;99.90;;;;;;5030194;28;20200;-52
2023/08/30 01:13:13;;;;;;;2.40;2.23;;;13.10;99.90;;;;;;5027971;28;20200;-52
2023/08/30 01:15:41;;;;;;;2.30;2.10;;;13.10;99.90;;;;;;5011252;28;20227;-46
2023/08/30 01:18:09;;;;;;;2.43;2.23;;;13.00;99.90;;;;;;5030970;28;20247;-54
2023/08/30 01:20:39;;;;;;;3.20;2.90;;;13.00;99.90;;;;;;5029185;28;20249;-43
2023/08/30 01:23:14;;;;;;;3.13;2.87;;;13.00;99.90;;;;;;5021545;28;20208;-45
2023/08/30 01:25:51;;;;;;;3.20;2.90;;;13.10;99.90;;;;;;5029164;28;20495;-48
2023/08/30 01:28:23;;;;;;;3.27;2.33;;;13.10;99.90;;;;;;5033040;28;20204;-54
2023/08/30 01:30:54;;;;;;;3.17;2.87;;;13.10;99.90;;;;;;5009148;28;20204;-45
2023/08/30 01:33:22;;;;;;;3.27;2.97;;;13.00;99.90;;;;;;5025312;28;20888;-54
2023/08/30 01:35:49;;;;;;;2.73;2.53;;;13.00;99.90;;;;;;5035923;28;20293;-51
2023/08/30 01:38:16;;;;;;;3.33;2.80;;;13.00;99.90;;;;;;5021421;28;20227;-53
2023/08/30 01:40:46;;;;;;;3.23;2.93;;;13.00;99.90;;;;;;5026591;28;20196;-53
2023/08/30 01:43:14;;;;;;;3.43;2.60;;;13.10;99.90;;;;;;5030550;28;20253;-53
2023/08/30 01:45:44;;;;;;;3.53;2.60;;;13.00;99.90;;;;;;5031656;28;20207;-44
2023/08/30 01:48:13;;;;;;;3.53;3.23;;;13.00;99.90;;;;;;5011295;28;20206;-54
2023/08/30 01:50:42;;;;;;;3.03;2.80;;;13.10;99.90;;;;;;5028341;28;20905;-44
2023/08/30 01:53:11;;;;;;;2.63;2.43;;;13.10;99.90;;;;;;5028124;28;20196;-56
2023/08/30 01:55:38;;;;;;;4.80;3.47;;;13.10;99.90;;;;;;5016859;28;20265;-50
2023/08/30 01:58:06;;;;;;;3.73;3.43;;;13.00;99.90;;;;;;5028338;28;20204;-47
2023/08/30 02:00:33;;;;;;;3.47;3.17;;;12.90;99.90;;;;;;5027649;28;20188;-48
2023/08/30 02:03:08;;;;;;;3.87;3.47;;;12.90;99.90;;;;;;5010664;28;20296;-48
2023/08/30 02:05:40;;;;;;;4.13;3.83;;;12.90;99.90;;;;;;5028494;28;20224;-48
2023/08/30 02:08:13;;;;;;;5.60;3.47;;;12.80;99.90;;;;;;5023763;28;20196;-45
2023/08/30 02:10:48;;;;;;;4.43;3.57;;;12.80;99.90;;;;;;5018150;28;20954;-47
2023/08/30 02:13:16;;;;;;;3.90;3.60;;;12.70;99.90;;;;;;5021586;28;20195;-53
2023/08/30 02:15:44;;;;;;;4.10;3.70;;;12.80;99.90;;;;;;5027112;28;20270;-47
2023/08/30 02:18:12;;;;;;;4.07;3.77;;;12.80;99.90;;;;;;5001557;28;20200;-56
2023/08/30 02:20:39;;;;;;;3.73;3.43;;;12.80;99.90;;;;;;5026615;28;20183;-48
2023/08/30 02:23:10;;;;;;;3.67;3.33;;;12.70;99.90;;;;;;5029202;28;20865;-50
2023/08/30 02:25:38;;;;;;;3.60;3.10;;;12.70;99.90;;;;;;5016616;28;20234;-48
2023/08/30 02:28:05;;;;;;;6.00;3.60;;;12.80;99.90;;;;;;5027151;28;20200;-51
2023/08/30 02:30:33;;;;;;;4.13;3.73;;;12.80;99.90;;;;;;5026462;28;20274;-49
2023/08/30 02:33:00;;;;;;;3.47;3.17;;;12.90;99.90;;;;;;5024457;28;20642;-50
2023/08/30 02:35:28;;;;;;;3.77;3.47;;;12.80;99.90;;;;;;4992884;28;20309;-46
2023/08/30 02:37:55;;;;;;;3.97;3.67;;;12.80;99.90;;;;;;5027391;28;20723;-53
2023/08/30 02:40:22;;;;;;;3.73;3.33;;;12.90;99.90;;;;;;5032199;28;20211;-48
2023/08/30 02:42:49;;;;;;;5.13;3.50;;;13.00;99.90;;;;;;5024709;28;20224;-51
2023/08/30 02:45:16;;;;;;;3.53;3.33;;;13.00;99.90;;;;;;5029456;28;20270;-44
2023/08/30 02:47:45;;;;;;;4.40;4.03;;;12.90;99.90;;;;;;5018302;28;20650;-47
2023/08/30 02:50:12;;;;;;;4.20;3.73;;;12.90;99.90;;;;;;5008910;28;20610;-54
2023/08/30 02:52:40;;;;;;;4.07;3.67;;;13.00;99.90;;;;;;5028821;28;20897;-48
2023/08/30 02:55:07;;;;;;;3.60;3.30;;;12.90;99.90;;;;;;5015490;28;20216;-54
2023/08/30 02:57:34;;;;;;;4.10;3.73;;;12.80;99.90;;;;;;5020109;28;20223;-46
2023/08/30 03:00:01;;;;;;;3.73;3.43;;;12.80;99.90;;;;;;5025813;28;20214;-55
2023/08/30 03:02:28;;;;;;;3.53;3.23;;;12.80;99.90;;;;;;5026737;28;20679;-45
2023/08/30 03:04:55;;;;;;;3.50;3.20;;;12.80;99.90;;;;;;5017884;28;20247;-56
2023/08/30 03:07:23;;;;;;;4.27;3.20;;;12.80;99.90;;;;;;5014360;28;20204;-51
2023/08/30 03:09:54;;;;;;;2.83;2.63;;;12.80;99.90;;;;;;5016089;28;20204;-52
2023/08/30 03:12:21;;;;;;;4.43;2.67;;;12.80;99.90;;;;;;5016890;28;20207;-54
2023/08/30 03:14:48;;;;;;;3.37;3.07;;;12.80;99.90;;;;;;5027773;28;20214;-53
2023/08/30 03:17:15;;;;;;;3.20;3.00;;;12.80;99.90;;;;;;5018844;28;20203;-51
2023/08/30 03:19:42;;;;;;;3.47;3.17;;;12.80;99.90;;;;;;5022345;28;20383;-50
2023/08/30 03:22:09;;;;;;;3.50;2.67;;;12.80;99.90;;;;;;5000212;28;20206;-48
2023/08/30 03:24:36;;;;;;;4.43;3.07;;;12.90;99.90;;;;;;5016807;28;20227;-47
2023/08/30 03:27:04;;;;;;;3.97;3.17;;;12.90;99.90;;;;;;5020720;28;20199;-55
2023/08/30 03:29:31;;;;;;;3.47;3.17;;;13.00;99.90;;;;;;5017107;28;20203;-46
2023/08/30 03:31:58;;;;;;;4.83;3.93;;;13.00;99.90;;;;;;5023155;28;20778;-55
2023/08/30 03:34:24;;;;;;;4.13;3.60;;;13.00;99.90;;;;;;5022937;28;20224;-48
2023/08/30 03:36:54;;;;;;;4.97;3.57;;;13.00;99.90;;;;;;5020373;28;20279;-55
2023/08/30 03:39:21;;;;;;;3.90;3.50;;;13.00;99.90;;;;;;5018499;28;20276;-45
2023/08/30 03:41:48;;;;;;;4.50;4.10;;;13.00;99.90;;;;;;5017905;28;20204;-53
2023/08/30 03:44:16;;;;;;;6.23;4.73;;;13.10;99.90;;;;;;5014613;28;23423;-46
2023/08/30 03:46:43;;;;;;;4.07;3.63;;;13.10;99.90;;;;;;5027983;28;20194;-47
2023/08/30 03:49:10;;;;;;;5.20;4.20;;;13.00;99.90;;;;;;5028009;28;20211;-53
2023/08/30 03:51:37;;;;;;;4.27;3.87;;;13.00;99.90;;;;;;5027858;28;20606;-47
2023/08/30 03:54:04;;;;;;;4.13;3.73;;;13.10;99.90;;;;;;5010236;28;20684;-55
2023/08/30 03:56:31;;;;;;;3.53;3.33;;;13.10;99.90;;;;;;5033159;28;20218;-45
2023/08/30 03:58:57;;;;;;;4.50;4.00;;;13.10;99.90;;;;;;5025854;28;20195;-52
2023/08/30 04:01:26;;;;;;;5.23;3.63;;;13.10;99.90;;;;;;5018760;28;20200;-49
2023/08/30 04:03:53;;;;;;;5.67;4.03;;;13.10;99.90;;;;;;5028675;28;20200;-53
2023/08/30 04:06:21;;;;;;;3.80;3.50;;;13.10;99.90;;;;;;5025844;28;20265;-46
2023/08/30 04:08:49;;;;;;;4.60;3.37;;;13.10;99.90;;;;;;5007047;28;20661;-56
2023/08/30 04:11:17;;;;;;;3.87;3.43;;;13.20;99.90;;;;;;5013704;28;20267;-51
2023/08/30 04:13:46;;;;;;;4.93;3.23;;;13.20;99.90;;;;;;5027656;28;20669;-46
2023/08/30 04:16:13;;;;;;;4.70;3.90;;;13.20;99.90;;;;;;5004984;28;20216;-49
2023/08/30 04:18:41;;;;;;;3.70;3.40;;;13.20;99.90;;;;;;5026966;28;20627;-47
2023/08/30 04:21:08;;;;;;;3.57;3.13;;;13.20;99.90;;;;;;5015536;28;20200;-56
2023/08/30 04:23:35;;;;;;;6.40;3.90;;;13.20;99.90;;;;;;5025356;28;20200;-47
2023/08/30 04:26:02;;;;;;;3.90;3.53;;;13.20;99.90;;;;;;5006782;28;20755;-54
2023/08/30 04:28:29;;;;;;;4.43;4.03;;;13.20;99.90;;;;;;5023337;28;20207;-48
2023/08/30 04:30:56;;;;;;;4.00;3.67;;;13.20;99.90;;;;;;4997182;28;20216;-48
2023/08/30 04:33:24;;;;;;;5.10;3.67;;;13.20;99.90;;;;;;5022184;28;20196;-50
2023/08/30 04:35:53;;;;;;;4.13;3.77;;;13.20;99.90;;;;;;5013730;28;20220;-46
2023/08/30 04:38:19;;;;;;;5.53;4.40;;;13.30;99.90;;;;;;5015312;28;20257;-49
2023/08/30 04:40:47;;;;;;;4.87;4.17;;;13.30;99.90;;;;;;4994868;28;20263;-46
2023/08/30 04:43:15;;;;;;;4.77;4.20;;;13.20;99.90;;;;;;5022411;28;20200;-48
2023/08/30 04:45:42;;;;;;;6.80;4.93;;;13.30;99.90;;;;;;5003832;28;20772;-56
2023/08/30 04:48:09;;;;;;;7.20;4.43;;;13.30;99.90;;;;;;5020213;28;20199;-60
2023/08/30 04:50:40;;;;;;;5.13;4.60;;;13.30;99.90;;;;;;5009234;28;20961;-57
2023/08/30 04:53:09;;;;;;;5.23;4.80;;;13.30;99.90;;;;;;5014809;28;20300;-58
2023/08/30 04:55:36;;;;;;;4.93;4.47;;;13.40;99.90;;;;;;5005065;28;20235;-58
2023/08/30 04:58:04;;;;;;;4.90;4.50;;;13.40;99.90;;;;;;5029876;28;20202;-50
2023/08/30 05:00:38;;;;;;;5.57;5.07;;;13.40;99.90;;;;;;5015868;28;20207;-48
2023/08/30 05:03:05;;;;;;;5.53;5.03;;;13.40;99.90;;;;;;5022126;28;20254;-46
2023/08/30 05:05:32;;;;;;;5.77;5.17;;;13.50;99.90;;;;;;5021317;28;20274;-52
2023/08/30 05:07:59;;;;;;;7.20;5.53;;;13.50;99.90;;;;;;5019422;28;20192;-47
2023/08/30 05:10:28;;;;;;;6.87;5.43;;;13.50;99.90;;;;;;5025417;28;20187;-55
2023/08/30 05:12:55;;;;;;;5.90;5.30;;;13.50;99.90;;;;;;5013060;28;20216;-45
2023/08/30 05:15:22;;;;;;;5.83;5.10;;;13.60;99.90;;;;;;5021490;28;20407;-57
2023/08/30 05:17:48;;;;;;;7.23;5.90;;;13.60;99.90;;;;;;5017756;28;20287;-49
2023/08/30 05:20:15;;;;;;;8.73;5.97;;;13.60;99.90;;;;;;5030770;28;20211;-55
2023/08/30 05:22:42;;;;;;;7.20;5.23;;;13.70;99.90;;;;;;5026296;28;20327;-50
2023/08/30 05:25:09;;;;;;;5.83;5.23;;;13.70;99.90;;;;;;5019292;28;20215;-49
2023/08/30 05:27:37;;;;;;;6.40;5.80;;;13.70;99.90;;;;;;5005843;28;20219;-44
2023/08/30 05:30:05;;;;;;;6.50;5.90;;;13.70;99.90;;;;;;5025858;28;20204;-52
2023/08/30 05:32:33;;;;;;;8.37;6.30;;;13.80;99.90;;;;;;5007550;28;20878;-49
2023/08/30 05:35:20;;;;;;;7.63;6.20;;;13.80;99.90;;;;;;5020825;28;20227;-56
2023/08/30 05:38:06;;;;;;;6.87;6.23;;;13.80;99.90;;;;;;5033399;28;20333;-47
2023/08/30 05:40:46;;;;;;;7.03;6.33;;;13.90;99.90;;;;;;5014736;28;20211;-47
2023/08/30 05:43:15;;;;;;;7.30;6.60;;;13.90;99.90;;;;;;5009603;28;20624;-55
2023/08/30 05:45:42;;;;;;;8.90;6.33;;;14.00;99.90;;;;;;5016385;28;20220;-47
2023/08/30 05:48:09;;;;;;;8.23;6.63;;;14.00;99.90;;;;;;5025858;28;20685;-52
2023/08/30 05:50:35;;;;;;;8.63;6.57;;;14.00;99.90;;;;;;5019181;28;20249;-49
2023/08/30 05:53:03;;;;;;;7.80;7.00;;;14.10;99.90;;;;;;5027295;28;20192;-47
2023/08/30 05:55:30;;;;;;;8.33;7.63;;;14.10;99.90;;;;;;5024036;28;20756;-47
2023/08/30 05:57:57;;;;;;;9.47;7.93;;;14.20;99.90;;;;;;5030938;28;20550;-48
2023/08/30 06:00:26;;;;;;;7.90;7.20;;;14.20;99.90;;;;;;5004859;28;20262;-56
2023/08/30 06:02:53;;;;;;;9.30;7.40;;;14.30;99.90;;;;;;5021911;28;20527;-49
2023/08/30 06:05:20;;;;;;;8.43;7.23;;;14.30;99.90;;;;;;5030353;28;20224;-55
2023/08/30 06:07:46;;;;;;;8.73;7.60;;;14.40;99.90;;;;;;5027744;28;20187;-50
2023/08/30 06:10:13;;;;;;;9.10;7.73;;;14.50;99.90;;;;;;5036138;28;20653;-57
2023/08/30 06:12:40;;;;;;;8.33;7.47;;;14.50;99.90;;;;;;5018563;28;20222;-52
2023/08/30 06:15:08;;;;;;;8.57;7.70;;;14.60;99.90;;;;;;5011269;28;20212;-45
2023/08/30 06:17:36;;;;;;;8.30;7.60;;;14.70;99.90;;;;;;5020234;28;20207;-48
2023/08/30 06:20:04;;;;;;;9.73;8.50;;;14.70;99.90;;;;;;5023864;28;20230;-51
2023/08/30 06:22:31;;;;;;;9.50;8.07;;;14.80;99.90;;;;;;5015653;28;20349;-46
2023/08/30 06:24:58;;;;;;;8.70;7.77;;;14.80;99.90;;;;;;5011697;28;20224;-50
2023/08/30 06:27:25;;;;;;;8.53;7.63;;;14.90;99.90;;;;;;5016801;28;20604;-49
2023/08/30 06:29:52;;;;;;;9.00;8.10;;;15.00;99.90;;;;;;4994821;28;20270;-51
2023/08/30 06:32:18;;;;;;;9.63;8.33;;;15.10;99.90;;;;;;5030231;28;20739;-48
2023/08/30 06:34:47;;;;;;;9.27;7.43;;;15.20;99.90;;;;;;5011362;28;20216;-58
2023/08/30 06:37:14;;;;;;;9.60;8.20;;;15.30;99.90;;;;;;5027764;28;20211;-49
2023/08/30 06:39:41;;;;;;;8.70;7.90;;;15.40;99.90;;;;;;5009472;28;20262;-49
2023/08/30 06:42:08;;;;;;;8.97;8.07;;;15.40;99.90;;;;;;5009703;28;20223;-57
2023/08/30 06:44:35;;;;;;;8.10;7.10;;;15.50;99.90;;;;;;5002185;28;20226;-52
2023/08/30 06:47:01;;;;;;;8.20;7.03;;;15.60;99.90;;;;;;5022575;28;20188;-56
2023/08/30 06:49:31;;;;;;;8.20;7.40;;;15.60;99.90;;;;;;5018687;28;20266;-49
2023/08/30 06:52:01;;;;;;;7.97;7.27;;;15.70;99.90;;;;;;5025417;28;20196;-44
2023/08/30 06:54:30;;;;;;;10.17;7.53;;;15.80;99.90;;;;;;5026989;28;20229;-47
2023/08/30 06:57:00;;;;;;;8.77;7.13;;;15.80;99.90;;;;;;5018571;28;20219;-55
2023/08/30 06:59:28;;;;;;;8.80;7.20;;;15.90;99.90;;;;;;4994559;28;21627;-44
2023/08/30 07:01:55;;;;;;;8.37;7.27;;;15.90;99.90;;;;;;5023792;28;20199;-54
2023/08/30 07:04:21;;;;;;;9.63;7.30;;;15.90;99.90;;;;;;5011731;28;20212;-46
2023/08/30 07:06:49;;;;;;;7.83;7.03;;;15.90;99.90;;;;;;5028350;28;20678;-46
2023/08/30 07:09:17;;;;;;;8.03;7.00;;;16.00;99.90;;;;;;5014596;28;20223;-56
2023/08/30 07:11:45;;;;;;;7.43;6.70;;;16.10;99.90;;;;;;5017431;28;20227;-44
2023/08/30 07:14:12;;;;;;;10.87;6.33;;;16.10;99.90;;;;;;5004478;28;20738;-56
2023/08/30 07:16:39;;;;;;;6.77;6.17;;;16.20;99.90;;;;;;5018146;28;21319;-45
2023/08/30 07:19:05;;;;;;;6.23;5.67;;;16.30;99.90;;;;;;5017544;28;20246;-55
2023/08/30 07:21:32;;;;;;;7.20;6.53;;;16.30;99.90;;;;;;5023713;28;20200;-44
2023/08/30 07:23:59;;;;;;;6.77;6.17;;;16.40;99.90;;;;;;5023046;28;20188;-50
2023/08/30 07:26:28;;;;;;;7.53;6.87;;;16.40;99.90;;;;;;5025013;28;20208;-47
2023/08/30 07:28:54;;;;;;;7.07;6.50;;;16.40;99.90;;;;;;5016966;28;20662;-47
2023/08/30 07:31:21;;;;;;;6.93;6.33;;;16.50;99.90;;;;;;4994259;28;20370;-52
2023/08/30 07:33:48;;;;;;;7.10;6.40;;;16.50;99.90;;;;;;5020011;28;20601;-44
2023/08/30 07:36:15;;;;;;;7.10;6.30;;;16.60;99.90;;;;;;5022521;28;20265;-56
2023/08/30 07:38:42;;;;;;;7.13;6.03;;;16.70;99.90;;;;;;5028257;28;20195;-56
2023/08/30 07:41:08;;;;;;;6.77;6.07;;;16.70;99.90;;;;;;5023305;28;20555;-50
2023/08/30 07:43:37;;;;;;;7.73;5.97;;;16.80;99.90;;;;;;5015827;28;20682;-50
2023/08/30 07:46:03;;;;;;;6.20;5.63;;;16.70;99.90;;;;;;4996310;28;20472;-49
2023/08/30 07:48:30;;;;;;;6.67;5.97;;;16.80;99.90;;;;;;5020180;28;20223;-48
2023/08/30 07:50:57;;;;;;;6.20;5.70;;;16.80;99.90;;;;;;5014781;28;20212;-52
2023/08/30 07:53:24;;;;;;;6.50;5.90;;;16.80;99.90;;;;;;5029058;28;20246;-50
2023/08/30 07:55:51;;;;;;;6.67;6.07;;;16.90;99.90;;;;;;5021088;28;20274;-50
2023/08/30 07:58:18;;;;;;;7.57;5.97;;;16.90;99.90;;;;;;5017398;28;20603;-52
2023/08/30 08:00:51;;;;;;;6.20;5.60;;;17.00;99.90;;;;;;4996433;28;20224;-52
2023/08/30 08:03:18;;;;;;;9.67;6.20;;;17.10;99.90;;;;;;5024064;28;20634;-50
2023/08/30 08:05:45;;;;;;;8.37;6.80;;;17.10;99.90;;;;;;5015618;28;20293;-56
2023/08/30 08:08:12;;;;;;;7.60;6.80;;;17.20;99.90;;;;;;5023866;28;20202;-52
2023/08/30 08:10:39;;;;;;;7.60;6.90;;;17.10;99.90;;;;;;5020080;28;20591;-50
2023/08/30 08:13:06;;;;;;;9.50;7.37;;;17.20;99.90;;;;;;5026242;28;20199;-54
2023/08/30 08:15:33;;;;;;;7.13;6.43;;;17.20;99.90;;;;;;5008779;28;20239;-56
2023/08/30 08:18:02;;;;;;;8.47;6.77;;;17.20;99.90;;;;;;5007622;28;20278;-50
2023/08/30 08:20:30;;;;;;;8.97;6.97;;;17.30;99.90;;;;;;5024523;28;20204;-56
2023/08/30 08:22:56;;;;;;;8.70;7.73;;;17.40;99.90;;;;;;5020509;28;20391;-47
2023/08/30 08:25:23;;;;;;;8.30;7.50;;;17.40;99.90;;;;;;5023766;28;20262;-46
2023/08/30 08:27:50;;;;;;;8.73;7.83;;;17.50;99.90;;;;;;5022404;28;20188;-50
2023/08/30 08:30:17;;;;;;;8.17;7.37;;;17.50;99.90;;;;;;5021657;28;20196;-47
2023/08/30 08:32:47;;;;;;;9.00;6.80;;;17.40;99.90;;;;;;4999447;28;20211;-48
2023/08/30 08:35:15;;;;;;;8.20;7.40;;;17.50;99.90;;;;;;5029810;28;20223;-49
2023/08/30 08:37:42;;;;;;;7.63;6.40;;;17.50;99.90;;;;;;5021394;28;20211;-59
2023/08/30 08:40:10;;;;;;;8.17;7.40;;;17.60;99.90;;;;;;5029215;28;20666;-52
2023/08/30 08:42:38;;;;;;;8.10;7.30;;;17.70;99.90;;;;;;5026441;28;20678;-58
2023/08/30 08:45:05;;;;;;;7.43;6.20;;;17.70;99.90;;;;;;5023847;28;20309;-48
2023/08/30 08:47:32;;;;;;;6.60;5.90;;;17.80;99.90;;;;;;5005033;28;20294;-56
2023/08/30 08:50:01;;;;;;;8.77;7.03;;;17.80;99.90;;;;;;5027926;28;20237;-51
2023/08/30 08:52:30;;;;;;;7.43;6.13;;;17.90;99.90;;;;;;5015564;28;20203;-54
2023/08/30 08:54:59;;;;;;;6.60;5.93;;;18.00;99.90;;;;;;5028496;28;20211;-44
2023/08/30 08:57:29;;;;;;;6.43;5.80;;;18.00;99.90;;;;;;5027495;28;20211;-55
2023/08/30 08:59:56;;;;;;;8.60;6.83;;;18.10;99.90;;;;;;5020956;28;20215;-56
2023/08/30 09:02:24;;;;;;;8.53;7.10;;;18.20;99.90;;;;;;5029929;28;20559;-48
2023/08/30 09:04:52;;;;;;;10.37;6.47;;;18.20;99.90;;;;;;5020156;28;20447;-55
2023/08/30 09:07:20;;;;;;;10.47;6.67;;;18.20;99.90;;;;;;5022477;28;20211;-55
2023/08/30 09:09:49;;;;;;;6.43;5.70;;;18.20;99.90;;;;;;5022432;28;20271;-56
2023/08/30 09:12:15;;;;;;;6.67;5.97;;;18.30;99.90;;;;;;5029281;28;20196;-56
2023/08/30 09:14:42;;;;;;;6.67;5.47;;;18.40;99.90;;;;;;5023530;28;20219;-51
2023/08/30 09:17:10;;;;;;;7.43;5.10;;;18.40;99.90;;;;;;5026856;28;20220;-56
2023/08/30 09:19:37;;;;;;;7.80;5.17;;;18.50;99.90;;;;;;5004535;28;20208;-53
2023/08/30 09:22:05;;;;;;;5.57;5.07;;;18.50;99.90;;;;;;5020202;28;20294;-54
2023/08/30 09:24:40;;;;;;;7.87;5.63;;;18.60;99.90;;;;;;5025474;28;20870;-51
2023/08/30 09:27:09;;;;;;;5.87;5.27;;;18.60;99.90;;;;;;5025886;28;20728;-52
2023/08/30 09:29:36;;;;;;;6.73;5.10;;;18.60;99.90;;;;;;5022899;28;20196;-52
2023/08/30 09:32:04;;;;;;;5.97;5.23;;;18.70;99.90;;;;;;5022256;28;20691;-50
2023/08/30 09:34:31;;;;;;;6.13;5.53;;;18.80;99.90;;;;;;5009104;28;20694;-50
2023/08/30 09:37:00;;;;;;;6.67;5.60;;;18.90;99.90;;;;;;5024754;28;20932;-53
2023/08/30 09:39:28;;;;;;;5.67;4.90;;;19.00;99.90;;;;;;5017489;28;20208;-51
2023/08/30 09:41:56;;;;;;;5.67;4.67;;;19.00;99.90;;;;;;5020927;28;20192;-55
2023/08/30 09:44:30;;;;;;;6.90;6.00;;;19.10;99.90;;;;;;5025067;28;20224;-53
2023/08/30 09:46:57;;;;;;;6.23;5.70;;;19.10;99.90;;;;;;5016291;28;20188;-48
2023/08/30 09:49:26;;;;;;;5.20;4.70;;;19.10;99.90;;;;;;5006480;28;20591;-52
2023/08/30 09:51:55;;;;;;;7.33;5.10;;;19.00;99.90;;;;;;5023792;28;20243;-52
2023/08/30 09:54:24;;;;;;;6.47;5.07;;;18.90;99.90;;;;;;5017227;28;20721;-53
2023/08/30 09:56:52;;;;;;;6.03;4.57;;;18.90;99.90;;;;;;5024083;28;20208;-53
2023/08/30 09:59:20;;;;;;;5.73;3.93;;;19.00;99.90;;;;;;5026943;28;20210;-50
2023/08/30 10:01:53;;;;;;;5.33;3.00;;;18.90;99.90;;;;;;5018657;28;20212;-52
2023/08/30 10:04:21;;;;;;;4.57;3.17;;;19.00;99.90;;;;;;5028565;28;20231;-51
2023/08/30 10:06:49;;;;;;;5.57;3.33;;;19.10;99.90;;;;;;5009026;28;20192;-51
2023/08/30 10:09:18;;;;;;;4.70;3.40;;;19.10;99.90;;;;;;5015236;28;20295;-54
2023/08/30 10:11:46;;;;;;;3.07;2.80;;;19.10;99.90;;;;;;5010000;28;20207;-49
2023/08/30 10:14:15;;;;;;;3.57;3.27;;;19.10;99.90;;;;;;5031301;28;20558;-52
2023/08/30 10:16:43;;;;;;;4.97;3.90;;;19.20;99.90;;;;;;5022132;28;20243;-52
2023/08/30 10:19:15;;;;;;;4.20;3.47;;;19.30;99.90;;;;;;5023164;28;20249;-53
2023/08/30 10:21:44;;;;;;;4.60;3.53;;;19.20;99.90;;;;;;5013584;28;20196;-55
2023/08/30 10:24:15;;;;;;;3.40;3.07;;;19.20;99.90;;;;;;5021936;28;20694;-52
2023/08/30 10:26:45;;;;;;;4.13;3.57;;;19.20;99.90;;;;;;5009176;28;20218;-57
2023/08/30 10:29:13;;;;;;;4.37;3.27;;;19.20;99.90;;;;;;5024307;28;20272;-54
2023/08/30 10:31:40;;;;;;;3.60;3.30;;;19.20;99.90;;;;;;5021842;28;20208;-56
2023/08/30 10:34:16;;;;;;;6.27;4.10;;;19.20;99.90;;;;;;5016983;28;20212;-58
2023/08/30 10:36:43;;;;;;;4.57;3.53;;;19.20;99.90;;;;;;5006205;28;20915;-54
2023/08/30 10:39:13;;;;;;;4.77;3.73;;;19.20;99.90;;;;;;5026918;28;20204;-57
2023/08/30 10:41:55;;;;;;;4.50;3.60;;;19.20;99.90;;;;;;5003905;28;20208;-59
2023/08/30 10:44:24;;;;;;;4.70;3.50;;;19.20;99.90;;;;;;5020568;28;20220;-56
2023/08/30 10:46:54;;;;;;;3.70;2.97;;;19.20;99.90;;;;;;5017843;28;20188;-57
2023/08/30 10:49:23;;;;;;;3.73;3.43;;;19.20;99.90;;;;;;5014333;28;20758;-53
2023/08/30 10:51:57;;;;;;;3.73;3.03;;;19.30;99.90;;;;;;5012157;28;20279;-59
2023/08/30 10:54:24;;;;;;;4.60;3.80;;;19.40;99.90;;;;;;5024256;28;20274;-49
2023/08/30 10:56:56;;;;;;;3.93;3.50;;;19.40;99.90;;;;;;5007220;28;20468;-56
2023/08/30 10:59:24;;;;;;;3.50;3.20;;;19.50;99.90;;;;;;5008915;28;20266;-48
2023/08/30 11:01:52;;;;;;;4.30;3.20;;;19.50;99.90;;;;;;5021558;28;20405;-51
2023/08/30 11:04:22;;;;;;;5.60;3.47;;;19.70;99.90;;;;;;5009707;28;20228;-47
2023/08/30 11:06:51;;;;;;;4.57;3.70;;;19.80;99.90;;;;;;5032925;28;20186;-57
2023/08/30 11:09:19;;;;;;;4.37;3.37;;;19.80;99.90;;;;;;5008080;28;20212;-55
2023/08/30 11:11:47;;;;;;;4.00;3.23;;;19.90;99.90;;;;;;5007360;28;20408;-58
2023/08/30 11:14:14;;;;;;;4.00;3.60;;;20.00;99.90;;;;;;5008780;28;20397;-54
2023/08/30 11:16:41;;;;;;;5.60;4.10;;;19.90;99.90;;;;;;5024653;28;20191;-53
2023/08/30 11:19:10;;;;;;;3.67;3.23;;;19.90;99.90;;;;;;5005676;28;20834;-54
2023/08/30 11:21:40;;;;;;;5.23;3.73;;;20.10;99.90;;;;;;5027935;28;20200;-56
2023/08/30 11:24:08;;;;;;;3.77;3.17;;;20.10;99.90;;;;;;5001039;28;20314;-56
2023/08/30 11:26:35;;;;;;;5.40;3.83;;;20.10;99.90;;;;;;5014008;28;20208;-54
2023/08/30 11:29:06;;;;;;;5.03;3.70;;;20.20;99.90;;;;;;5013300;28;20846;-47
2023/08/30 11:31:32;;;;;;;5.03;3.70;;;20.10;99.90;;;;;;5023143;28;20701;-57
2023/08/30 11:34:00;;;;;;;4.07;3.67;;;20.00;99.90;;;;;;5014514;28;20216;-50
2023/08/30 11:36:28;;;;;;;4.73;3.50;;;20.10;99.90;;;;;;5015347;28;20266;-57
2023/08/30 11:38:57;;;;;;;4.87;3.47;;;20.10;99.90;;;;;;5015393;28;20219;-49
2023/08/30 11:41:25;;;;;;;3.80;3.40;;;20.20;99.90;;;;;;5010456;28;20648;-56
2023/08/30 11:43:53;;;;;;;4.63;4.10;;;20.20;99.90;;;;;;5015523;28;20207;-49
2023/08/30 11:46:20;;;;;;;4.07;3.60;;;20.20;99.90;;;;;;5021254;28;20176;-57
2023/08/30 11:48:49;;;;;;;3.17;2.87;;;20.10;99.90;;;;;;5023869;28;20250;-52
2023/08/30 11:51:17;;;;;;;4.00;3.60;;;20.20;99.90;;;;;;5014954;28;21029;-53
2023/08/30 11:53:45;;;;;;;3.33;3.03;;;20.30;99.90;;;;;;5026614;28;20192;-49
2023/08/30 11:56:14;;;;;;;4.17;3.27;;;20.30;99.90;;;;;;4993380;28;21278;-54
2023/08/30 11:58:40;;;;;;;3.87;2.97;;;20.40;99.90;;;;;;5027795;28;20212;-51
2023/08/30 12:01:09;;;;;;;3.70;3.37;;;20.50;99.90;;;;;;5011659;28;20299;-48
2023/08/30 12:03:37;;;;;;;3.77;3.17;;;20.60;99.90;;;;;;5024117;28;20206;-51
2023/08/30 12:06:09;;;;;;;3.03;2.78;;;20.70;99.90;;;;;;5017407;28;20711;-47
2023/08/30 12:08:36;;;;;;;3.88;3.47;;;20.70;99.90;;;;;;5020607;28;20192;-54
2023/08/30 12:11:03;;;;;;;4.35;3.38;;;20.70;99.90;;;;;;5002844;28;20215;-48
2023/08/30 12:13:34;;;;;;;5.00;3.20;;;20.60;99.90;;;;;;5013203;28;20204;-54
2023/08/30 12:16:02;;;;;;;3.83;3.40;;;20.60;99.90;;;;;;5012211;28;20219;-52
2023/08/30 12:18:32;;;;;;;5.13;3.45;;;20.70;99.90;;;;;;5024464;28;20269;-50
2023/08/30 12:21:00;;;;;;;5.07;3.40;;;20.80;99.90;;;;;;5016000;28;20564;-51
2023/08/30 12:23:29;;;;;;;5.38;3.45;;;21.00;99.90;;;;;;5021795;28;20736;-46
2023/08/30 12:26:04;;;;;;;8.57;3.40;;;21.10;99.90;;;;;;5007415;28;20278;-55
2023/08/30 12:28:34;;;;;;;4.63;3.53;;;21.10;99.90;;;;;;5014825;28;20231;-49
2023/08/30 12:31:02;;;;;;;5.80;3.55;;;21.00;99.90;;;;;;5014607;28;20517;-56
2023/08/30 12:33:29;;;;;;;4.32;3.88;;;20.90;99.90;;;;;;5020946;28;20254;-45
2023/08/30 12:35:56;;;;;;;4.40;3.65;;;21.00;99.90;;;;;;5023231;28;20226;-55
2023/08/30 12:38:23;;;;;;;3.53;3.22;;;21.00;99.90;;;;;;5023418;28;20355;-45
2023/08/30 12:40:51;;;;;;;5.40;3.20;;;20.90;99.90;;;;;;5029506;28;20199;-53
2023/08/30 12:43:20;;;;;;;3.85;3.30;;;20.90;99.90;;;;;;4996407;28;20482;-44
2023/08/30 12:45:50;;;;;;;3.20;2.90;;;21.00;99.90;;;;;;5011524;28;20224;-49
2023/08/30 12:48:18;;;;;;;4.20;3.25;;;21.10;99.90;;;;;;5016048;28;20196;-54
2023/08/30 12:50:47;;;;;;;3.13;2.92;;;21.40;99.90;;;;;;5026613;28;20199;-50